sensor_id;sensor_type;location;lat;lon;timestamp;P1;durP1;ratioP1;P2;durP2;ratioP2
12760;SDS011;6444;49.742;6.114;2023-06-24T00:00:26;4.65;;;4.25;;
12760;SDS011;6444;49.742;6.114;2023-06-24T00:02:53;4.80;;;4.35;;
12760;SDS011;6444;49.742;6.114;2023-06-24T00:05:20;4.97;;;4.43;;
12760;SDS011;6444;49.742;6.114;2023-06-24T00:07:46;5.40;;;4.75;;
12760;SDS011;6444;49.742;6.114;2023-06-24T00:10:13;4.50;;;4.10;;
12760;SDS011;6444;49.742;6.114;2023-06-24T00:12:40;4.95;;;4.45;;
12760;SDS011;6444;49.742;6.114;2023-06-24T00:15:07;6.28;;;4.37;;
12760;SDS011;6444;49.742;6.114;2023-06-24T00:17:33;4.97;;;4.30;;
12760;SDS011;6444;49.742;6.114;2023-06-24T00:20:00;7.18;;;4.45;;
12760;SDS011;6444;49.742;6.114;2023-06-24T00:22:26;5.40;;;4.60;;
12760;SDS011;6444;49.742;6.114;2023-06-24T00:24:53;7.20;;;4.43;;
12760;SDS011;6444;49.742;6.114;2023-06-24T00:27:19;5.60;;;4.22;;
12760;SDS011;6444;49.742;6.114;2023-06-24T00:29:46;6.20;;;5.28;;
12760;SDS011;6444;49.742;6.114;2023-06-24T00:32:13;5.55;;;4.60;;
12760;SDS011;6444;49.742;6.114;2023-06-24T00:34:39;6.15;;;4.65;;
12760;SDS011;6444;49.742;6.114;2023-06-24T00:37:06;5.85;;;4.87;;
12760;SDS011;6444;49.742;6.114;2023-06-24T00:39:33;5.57;;;5.00;;
12760;SDS011;6444;49.742;6.114;2023-06-24T00:41:59;9.57;;;4.90;;
12760;SDS011;6444;49.742;6.114;2023-06-24T00:44:26;7.47;;;5.05;;
12760;SDS011;6444;49.742;6.114;2023-06-24T00:46:53;6.00;;;4.68;;
12760;SDS011;6444;49.742;6.114;2023-06-24T00:49:19;5.78;;;4.50;;
12760;SDS011;6444;49.742;6.114;2023-06-24T00:51:46;6.43;;;4.95;;
12760;SDS011;6444;49.742;6.114;2023-06-24T00:54:16;5.15;;;4.65;;
12760;SDS011;6444;49.742;6.114;2023-06-24T00:56:42;6.53;;;4.60;;
12760;SDS011;6444;49.742;6.114;2023-06-24T00:59:09;8.18;;;4.80;;
12760;SDS011;6444;49.742;6.114;2023-06-24T01:01:35;4.97;;;4.55;;
12760;SDS011;6444;49.742;6.114;2023-06-24T01:04:02;5.60;;;5.00;;
12760;SDS011;6444;49.742;6.114;2023-06-24T01:06:28;5.90;;;5.32;;
12760;SDS011;6444;49.742;6.114;2023-06-24T01:08:57;5.87;;;5.28;;
12760;SDS011;6444;49.742;6.114;2023-06-24T01:11:23;5.68;;;5.12;;
12760;SDS011;6444;49.742;6.114;2023-06-24T01:13:49;6.72;;;5.32;;
12760;SDS011;6444;49.742;6.114;2023-06-24T01:16:20;5.75;;;5.25;;
12760;SDS011;6444;49.742;6.114;2023-06-24T01:18:59;5.78;;;5.07;;
12760;SDS011;6444;49.742;6.114;2023-06-24T01:21:33;7.10;;;5.60;;
12760;SDS011;6444;49.742;6.114;2023-06-24T01:29:27;5.68;;;5.05;;
12760;SDS011;6444;49.742;6.114;2023-06-24T01:31:48;6.45;;;5.00;;
12760;SDS011;6444;49.742;6.114;2023-06-24T01:34:34;6.60;;;6.00;;
12760;SDS011;6444;49.742;6.114;2023-06-24T01:37:04;5.75;;;5.20;;
12760;SDS011;6444;49.742;6.114;2023-06-24T01:39:27;7.10;;;5.50;;
12760;SDS011;6444;49.742;6.114;2023-06-24T01:41:56;5.62;;;5.12;;
12760;SDS011;6444;49.742;6.114;2023-06-24T01:44:20;6.28;;;5.68;;
12760;SDS011;6444;49.742;6.114;2023-06-24T01:46:48;6.25;;;5.47;;
12760;SDS011;6444;49.742;6.114;2023-06-24T01:49:14;6.97;;;5.90;;
12760;SDS011;6444;49.742;6.114;2023-06-24T01:51:41;6.65;;;5.50;;
12760;SDS011;6444;49.742;6.114;2023-06-24T01:54:10;7.03;;;5.37;;
12760;SDS011;6444;49.742;6.114;2023-06-24T01:56:34;6.22;;;5.22;;
12760;SDS011;6444;49.742;6.114;2023-06-24T01:59:02;7.30;;;6.00;;
12760;SDS011;6444;49.742;6.114;2023-06-24T02:01:28;6.00;;;5.40;;
12760;SDS011;6444;49.742;6.114;2023-06-24T02:03:55;7.10;;;5.97;;
12760;SDS011;6444;49.742;6.114;2023-06-24T02:06:21;7.82;;;5.70;;
12760;SDS011;6444;49.742;6.114;2023-06-24T02:08:49;9.05;;;6.07;;
12760;SDS011;6444;49.742;6.114;2023-06-24T02:11:15;6.78;;;6.07;;
12760;SDS011;6444;49.742;6.114;2023-06-24T02:13:42;7.45;;;6.40;;
12760;SDS011;6444;49.742;6.114;2023-06-24T02:16:09;6.55;;;5.90;;
12760;SDS011;6444;49.742;6.114;2023-06-24T02:18:37;6.43;;;5.68;;
12760;SDS011;6444;49.742;6.114;2023-06-24T02:21:03;9.02;;;6.40;;
12760;SDS011;6444;49.742;6.114;2023-06-24T02:23:29;8.27;;;6.32;;
12760;SDS011;6444;49.742;6.114;2023-06-24T02:25:56;7.72;;;6.45;;
12760;SDS011;6444;49.742;6.114;2023-06-24T02:28:23;7.32;;;6.25;;
12760;SDS011;6444;49.742;6.114;2023-06-24T02:30:50;6.70;;;5.97;;
12760;SDS011;6444;49.742;6.114;2023-06-24T02:33:16;6.72;;;6.03;;
12760;SDS011;6444;49.742;6.114;2023-06-24T02:35:43;7.68;;;6.45;;
12760;SDS011;6444;49.742;6.114;2023-06-24T02:38:10;7.90;;;6.28;;
12760;SDS011;6444;49.742;6.114;2023-06-24T02:40:36;8.40;;;6.50;;
12760;SDS011;6444;49.742;6.114;2023-06-24T02:43:03;8.00;;;7.20;;
12760;SDS011;6444;49.742;6.114;2023-06-24T02:45:30;7.28;;;6.55;;
12760;SDS011;6444;49.742;6.114;2023-06-24T02:47:56;6.40;;;5.80;;
12760;SDS011;6444;49.742;6.114;2023-06-24T02:50:23;7.07;;;5.90;;
12760;SDS011;6444;49.742;6.114;2023-06-24T02:52:49;8.35;;;6.50;;
12760;SDS011;6444;49.742;6.114;2023-06-24T02:55:16;6.78;;;5.85;;
12760;SDS011;6444;49.742;6.114;2023-06-24T02:57:43;7.07;;;6.35;;
12760;SDS011;6444;49.742;6.114;2023-06-24T03:00:09;9.02;;;8.10;;
12760;SDS011;6444;49.742;6.114;2023-06-24T03:02:39;7.85;;;7.05;;
12760;SDS011;6444;49.742;6.114;2023-06-24T03:05:06;7.75;;;7.05;;
12760;SDS011;6444;49.742;6.114;2023-06-24T03:07:32;9.27;;;8.38;;
12760;SDS011;6444;49.742;6.114;2023-06-24T03:09:58;8.65;;;7.32;;
12760;SDS011;6444;49.742;6.114;2023-06-24T03:12:25;7.85;;;7.07;;
12760;SDS011;6444;49.742;6.114;2023-06-24T03:14:52;7.97;;;6.93;;
12760;SDS011;6444;49.742;6.114;2023-06-24T03:17:18;8.10;;;6.85;;
12760;SDS011;6444;49.742;6.114;2023-06-24T03:19:45;7.12;;;6.43;;
12760;SDS011;6444;49.742;6.114;2023-06-24T03:22:12;7.68;;;6.90;;
12760;SDS011;6444;49.742;6.114;2023-06-24T03:24:38;8.10;;;7.30;;
12760;SDS011;6444;49.742;6.114;2023-06-24T03:27:05;8.43;;;7.60;;
12760;SDS011;6444;49.742;6.114;2023-06-24T03:29:31;10.02;;;8.27;;
12760;SDS011;6444;49.742;6.114;2023-06-24T03:31:58;9.38;;;7.85;;
12760;SDS011;6444;49.742;6.114;2023-06-24T03:34:25;9.10;;;7.50;;
12760;SDS011;6444;49.742;6.114;2023-06-24T03:36:51;8.93;;;6.60;;
12760;SDS011;6444;49.742;6.114;2023-06-24T03:39:19;7.78;;;6.97;;
12760;SDS011;6444;49.742;6.114;2023-06-24T03:41:45;7.50;;;6.62;;
12760;SDS011;6444;49.742;6.114;2023-06-24T03:44:12;8.95;;;6.97;;
12760;SDS011;6444;49.742;6.114;2023-06-24T03:46:39;7.60;;;6.85;;
12760;SDS011;6444;49.742;6.114;2023-06-24T03:49:05;9.48;;;8.10;;
12760;SDS011;6444;49.742;6.114;2023-06-24T03:51:32;7.47;;;6.78;;
12760;SDS011;6444;49.742;6.114;2023-06-24T03:53:58;9.18;;;7.47;;
12760;SDS011;6444;49.742;6.114;2023-06-24T03:56:25;11.30;;;8.52;;
12760;SDS011;6444;49.742;6.114;2023-06-24T03:58:52;9.02;;;7.65;;
12760;SDS011;6444;49.742;6.114;2023-06-24T04:01:18;7.95;;;7.10;;
12760;SDS011;6444;49.742;6.114;2023-06-24T04:03:45;9.13;;;7.45;;
12760;SDS011;6444;49.742;6.114;2023-06-24T04:06:12;10.07;;;8.05;;
12760;SDS011;6444;49.742;6.114;2023-06-24T04:08:39;9.40;;;7.68;;
12760;SDS011;6444;49.742;6.114;2023-06-24T04:11:06;8.48;;;7.60;;
12760;SDS011;6444;49.742;6.114;2023-06-24T04:13:32;8.65;;;7.85;;
12760;SDS011;6444;49.742;6.114;2023-06-24T04:15:59;9.10;;;8.20;;
12760;SDS011;6444;49.742;6.114;2023-06-24T04:18:25;9.50;;;8.50;;
12760;SDS011;6444;49.742;6.114;2023-06-24T04:20:53;9.88;;;7.90;;
12760;SDS011;6444;49.742;6.114;2023-06-24T04:23:19;9.30;;;8.13;;
12760;SDS011;6444;49.742;6.114;2023-06-24T04:25:46;9.50;;;8.48;;
12760;SDS011;6444;49.742;6.114;2023-06-24T04:28:14;9.45;;;8.43;;
12760;SDS011;6444;49.742;6.114;2023-06-24T04:30:40;8.57;;;7.60;;
12760;SDS011;6444;49.742;6.114;2023-06-24T04:33:07;8.35;;;7.40;;
12760;SDS011;6444;49.742;6.114;2023-06-24T04:35:33;7.70;;;7.00;;
12760;SDS011;6444;49.742;6.114;2023-06-24T04:38:00;7.87;;;7.22;;
12760;SDS011;6444;49.742;6.114;2023-06-24T04:40:27;8.80;;;7.20;;
12760;SDS011;6444;49.742;6.114;2023-06-24T04:42:54;7.32;;;6.50;;
12760;SDS011;6444;49.742;6.114;2023-06-24T04:45:21;7.75;;;6.47;;
12760;SDS011;6444;49.742;6.114;2023-06-24T04:47:47;8.32;;;5.80;;
12760;SDS011;6444;49.742;6.114;2023-06-24T04:50:15;7.00;;;6.18;;
12760;SDS011;6444;49.742;6.114;2023-06-24T04:52:41;7.73;;;6.67;;
12760;SDS011;6444;49.742;6.114;2023-06-24T04:55:08;6.65;;;6.05;;
12760;SDS011;6444;49.742;6.114;2023-06-24T04:57:35;7.93;;;5.50;;
12760;SDS011;6444;49.742;6.114;2023-06-24T05:00:02;5.70;;;5.10;;
12760;SDS011;6444;49.742;6.114;2023-06-24T05:02:29;4.50;;;4.10;;
12760;SDS011;6444;49.742;6.114;2023-06-24T05:04:55;5.07;;;4.50;;
12760;SDS011;6444;49.742;6.114;2023-06-24T05:07:22;4.45;;;4.00;;
12760;SDS011;6444;49.742;6.114;2023-06-24T05:09:49;5.90;;;4.10;;
12760;SDS011;6444;49.742;6.114;2023-06-24T05:12:16;6.30;;;3.50;;
12760;SDS011;6444;49.742;6.114;2023-06-24T05:14:42;4.05;;;3.65;;
12760;SDS011;6444;49.742;6.114;2023-06-24T05:17:09;5.47;;;4.10;;
12760;SDS011;6444;49.742;6.114;2023-06-24T05:19:36;6.78;;;3.97;;
12760;SDS011;6444;49.742;6.114;2023-06-24T05:22:02;5.60;;;3.55;;
12760;SDS011;6444;49.742;6.114;2023-06-24T05:24:29;4.35;;;3.95;;
12760;SDS011;6444;49.742;6.114;2023-06-24T05:26:56;5.15;;;4.30;;
12760;SDS011;6444;49.742;6.114;2023-06-24T05:29:22;6.22;;;4.45;;
12760;SDS011;6444;49.742;6.114;2023-06-24T05:31:49;5.90;;;4.78;;
12760;SDS011;6444;49.742;6.114;2023-06-24T05:34:15;5.47;;;4.37;;
12760;SDS011;6444;49.742;6.114;2023-06-24T05:36:42;6.68;;;5.45;;
12760;SDS011;6444;49.742;6.114;2023-06-24T05:39:10;6.70;;;5.62;;
12760;SDS011;6444;49.742;6.114;2023-06-24T05:41:36;5.35;;;4.72;;
12760;SDS011;6444;49.742;6.114;2023-06-24T05:44:03;7.25;;;4.22;;
12760;SDS011;6444;49.742;6.114;2023-06-24T05:46:30;6.85;;;4.60;;
12760;SDS011;6444;49.742;6.114;2023-06-24T05:48:56;4.87;;;4.22;;
12760;SDS011;6444;49.742;6.114;2023-06-24T05:51:23;4.75;;;4.35;;
12760;SDS011;6444;49.742;6.114;2023-06-24T05:53:49;5.85;;;4.50;;
12760;SDS011;6444;49.742;6.114;2023-06-24T05:56:16;4.53;;;4.10;;
12760;SDS011;6444;49.742;6.114;2023-06-24T05:58:43;5.50;;;4.62;;
12760;SDS011;6444;49.742;6.114;2023-06-24T06:01:09;6.37;;;4.70;;
12760;SDS011;6444;49.742;6.114;2023-06-24T06:03:36;7.28;;;4.53;;
12760;SDS011;6444;49.742;6.114;2023-06-24T06:06:02;4.70;;;4.18;;
12760;SDS011;6444;49.742;6.114;2023-06-24T06:08:29;5.00;;;4.60;;
12760;SDS011;6444;49.742;6.114;2023-06-24T06:10:56;6.03;;;4.32;;
12760;SDS011;6444;49.742;6.114;2023-06-24T06:13:22;7.30;;;4.75;;
12760;SDS011;6444;49.742;6.114;2023-06-24T06:15:49;4.90;;;4.50;;
12760;SDS011;6444;49.742;6.114;2023-06-24T06:18:16;6.47;;;5.18;;
12760;SDS011;6444;49.742;6.114;2023-06-24T06:20:42;4.65;;;4.25;;
12760;SDS011;6444;49.742;6.114;2023-06-24T06:23:09;6.85;;;4.62;;
12760;SDS011;6444;49.742;6.114;2023-06-24T06:25:35;6.10;;;4.60;;
12760;SDS011;6444;49.742;6.114;2023-06-24T06:28:02;5.62;;;5.00;;
12760;SDS011;6444;49.742;6.114;2023-06-24T06:30:29;5.37;;;4.45;;
12760;SDS011;6444;49.742;6.114;2023-06-24T06:32:55;7.57;;;5.15;;
12760;SDS011;6444;49.742;6.114;2023-06-24T06:35:22;8.13;;;7.43;;
12760;SDS011;6444;49.742;6.114;2023-06-24T06:37:49;5.18;;;4.60;;
12760;SDS011;6444;49.742;6.114;2023-06-24T06:40:15;6.15;;;5.05;;
12760;SDS011;6444;49.742;6.114;2023-06-24T06:42:42;6.78;;;4.30;;
12760;SDS011;6444;49.742;6.114;2023-06-24T06:45:08;4.22;;;3.83;;
12760;SDS011;6444;49.742;6.114;2023-06-24T06:47:35;5.75;;;5.12;;
12760;SDS011;6444;49.742;6.114;2023-06-24T06:50:02;4.43;;;3.92;;
12760;SDS011;6444;49.742;6.114;2023-06-24T06:52:29;4.32;;;3.65;;
12760;SDS011;6444;49.742;6.114;2023-06-24T06:54:56;5.15;;;4.03;;
12760;SDS011;6444;49.742;6.114;2023-06-24T06:57:22;4.40;;;4.00;;
12760;SDS011;6444;49.742;6.114;2023-06-24T06:59:49;5.10;;;4.05;;
12760;SDS011;6444;49.742;6.114;2023-06-24T07:02:17;4.47;;;4.03;;
12760;SDS011;6444;49.742;6.114;2023-06-24T07:04:43;5.47;;;4.10;;
12760;SDS011;6444;49.742;6.114;2023-06-24T07:07:10;5.40;;;4.18;;
12760;SDS011;6444;49.742;6.114;2023-06-24T07:09:36;4.12;;;3.75;;
12760;SDS011;6444;49.742;6.114;2023-06-24T07:12:04;4.45;;;3.83;;
12760;SDS011;6444;49.742;6.114;2023-06-24T07:14:30;4.70;;;4.30;;
12760;SDS011;6444;49.742;6.114;2023-06-24T07:16:57;6.15;;;4.22;;
12760;SDS011;6444;49.742;6.114;2023-06-24T07:19:24;5.68;;;3.87;;
12760;SDS011;6444;49.742;6.114;2023-06-24T07:21:51;5.57;;;4.15;;
12760;SDS011;6444;49.742;6.114;2023-06-24T07:24:17;4.90;;;4.43;;
12760;SDS011;6444;49.742;6.114;2023-06-24T07:26:43;5.35;;;4.28;;
12760;SDS011;6444;49.742;6.114;2023-06-24T07:29:10;4.30;;;3.90;;
12760;SDS011;6444;49.742;6.114;2023-06-24T07:31:37;4.60;;;3.83;;
12760;SDS011;6444;49.742;6.114;2023-06-24T07:34:03;4.40;;;4.00;;
12760;SDS011;6444;49.742;6.114;2023-06-24T07:36:30;5.45;;;3.95;;
12760;SDS011;6444;49.742;6.114;2023-06-24T07:38:57;4.22;;;3.70;;
12760;SDS011;6444;49.742;6.114;2023-06-24T07:41:23;4.00;;;3.35;;
12760;SDS011;6444;49.742;6.114;2023-06-24T07:43:50;4.78;;;4.28;;
12760;SDS011;6444;49.742;6.114;2023-06-24T07:46:16;4.47;;;3.85;;
12760;SDS011;6444;49.742;6.114;2023-06-24T07:48:43;4.25;;;3.22;;
12760;SDS011;6444;49.742;6.114;2023-06-24T07:51:10;4.30;;;3.53;;
12760;SDS011;6444;49.742;6.114;2023-06-24T07:53:37;7.30;;;4.20;;
12760;SDS011;6444;49.742;6.114;2023-06-24T07:56:04;4.00;;;3.70;;
12760;SDS011;6444;49.742;6.114;2023-06-24T07:58:30;4.62;;;4.10;;
12760;SDS011;6444;49.742;6.114;2023-06-24T08:00:57;5.40;;;4.15;;
12760;SDS011;6444;49.742;6.114;2023-06-24T08:03:24;5.55;;;4.18;;
12760;SDS011;6444;49.742;6.114;2023-06-24T08:05:51;4.47;;;4.07;;
12760;SDS011;6444;49.742;6.114;2023-06-24T08:08:18;4.50;;;4.10;;
12760;SDS011;6444;49.742;6.114;2023-06-24T08:10:44;6.40;;;4.22;;
12760;SDS011;6444;49.742;6.114;2023-06-24T08:13:11;4.28;;;3.87;;
12760;SDS011;6444;49.742;6.114;2023-06-24T08:15:37;5.55;;;4.15;;
12760;SDS011;6444;49.742;6.114;2023-06-24T08:18:04;4.15;;;3.83;;
12760;SDS011;6444;49.742;6.114;2023-06-24T08:20:31;4.78;;;4.35;;
12760;SDS011;6444;49.742;6.114;2023-06-24T08:22:57;5.20;;;4.70;;
12760;SDS011;6444;49.742;6.114;2023-06-24T08:25:24;4.43;;;3.92;;
12760;SDS011;6444;49.742;6.114;2023-06-24T08:27:51;4.40;;;3.85;;
12760;SDS011;6444;49.742;6.114;2023-06-24T08:30:17;5.68;;;3.78;;
12760;SDS011;6444;49.742;6.114;2023-06-24T08:32:44;3.90;;;3.60;;
12760;SDS011;6444;49.742;6.114;2023-06-24T08:35:11;3.75;;;3.40;;
12760;SDS011;6444;49.742;6.114;2023-06-24T08:37:38;4.85;;;3.55;;
12760;SDS011;6444;49.742;6.114;2023-06-24T08:40:05;6.00;;;3.85;;
12760;SDS011;6444;49.742;6.114;2023-06-24T08:42:31;5.37;;;4.15;;
12760;SDS011;6444;49.742;6.114;2023-06-24T08:44:58;3.65;;;3.35;;
12760;SDS011;6444;49.742;6.114;2023-06-24T08:47:25;4.35;;;3.95;;
12760;SDS011;6444;49.742;6.114;2023-06-24T08:49:52;4.97;;;4.05;;
12760;SDS011;6444;49.742;6.114;2023-06-24T08:52:19;6.68;;;3.60;;
12760;SDS011;6444;49.742;6.114;2023-06-24T08:54:46;11.63;;;10.02;;
12760;SDS011;6444;49.742;6.114;2023-06-24T08:57:12;9.07;;;6.97;;
12760;SDS011;6444;49.742;6.114;2023-06-24T08:59:41;9.15;;;7.93;;
12760;SDS011;6444;49.742;6.114;2023-06-24T09:02:08;4.05;;;3.62;;
12760;SDS011;6444;49.742;6.114;2023-06-24T09:04:35;4.60;;;3.67;;
12760;SDS011;6444;49.742;6.114;2023-06-24T09:07:01;4.15;;;3.83;;
12760;SDS011;6444;49.742;6.114;2023-06-24T09:09:28;4.32;;;3.90;;
12760;SDS011;6444;49.742;6.114;2023-06-24T09:11:55;4.03;;;3.53;;
12760;SDS011;6444;49.742;6.114;2023-06-24T09:14:21;4.12;;;3.30;;
12760;SDS011;6444;49.742;6.114;2023-06-24T09:16:52;4.28;;;3.62;;
12760;SDS011;6444;49.742;6.114;2023-06-24T09:19:24;4.10;;;3.70;;
12760;SDS011;6444;49.742;6.114;2023-06-24T09:21:50;5.35;;;4.00;;
12760;SDS011;6444;49.742;6.114;2023-06-24T09:24:21;4.50;;;3.95;;
12760;SDS011;6444;49.742;6.114;2023-06-24T09:26:47;4.15;;;3.60;;
12760;SDS011;6444;49.742;6.114;2023-06-24T09:29:14;4.95;;;4.53;;
12760;SDS011;6444;49.742;6.114;2023-06-24T09:31:50;5.28;;;4.78;;
12760;SDS011;6444;49.742;6.114;2023-06-24T09:34:16;3.42;;;3.12;;
12760;SDS011;6444;49.742;6.114;2023-06-24T09:36:43;4.18;;;3.75;;
12760;SDS011;6444;49.742;6.114;2023-06-24T09:39:10;4.22;;;3.40;;
12760;SDS011;6444;49.742;6.114;2023-06-24T09:41:39;4.65;;;2.92;;
12760;SDS011;6444;49.742;6.114;2023-06-24T09:44:03;3.42;;;3.05;;
12760;SDS011;6444;49.742;6.114;2023-06-24T09:46:30;5.00;;;3.33;;
12760;SDS011;6444;49.742;6.114;2023-06-24T09:48:56;4.07;;;3.20;;
12760;SDS011;6444;49.742;6.114;2023-06-24T09:51:23;3.60;;;3.30;;
12760;SDS011;6444;49.742;6.114;2023-06-24T09:53:49;4.97;;;3.40;;
12760;SDS011;6444;49.742;6.114;2023-06-24T09:56:16;4.43;;;3.53;;
12760;SDS011;6444;49.742;6.114;2023-06-24T09:58:43;3.78;;;3.47;;
12760;SDS011;6444;49.742;6.114;2023-06-24T10:01:09;3.37;;;3.08;;
12760;SDS011;6444;49.742;6.114;2023-06-24T10:03:36;3.40;;;3.10;;
12760;SDS011;6444;49.742;6.114;2023-06-24T10:06:02;3.22;;;2.80;;
12760;SDS011;6444;49.742;6.114;2023-06-24T10:08:29;4.47;;;2.97;;
12760;SDS011;6444;49.742;6.114;2023-06-24T10:10:56;3.47;;;3.17;;
12760;SDS011;6444;49.742;6.114;2023-06-24T10:13:22;3.90;;;3.17;;
12760;SDS011;6444;49.742;6.114;2023-06-24T10:15:49;4.68;;;4.12;;
12760;SDS011;6444;49.742;6.114;2023-06-24T10:20:57;3.97;;;3.42;;
12760;SDS011;6444;49.742;6.114;2023-06-24T10:23:29;3.25;;;2.95;;
12760;SDS011;6444;49.742;6.114;2023-06-24T10:25:53;3.80;;;3.20;;
12760;SDS011;6444;49.742;6.114;2023-06-24T10:28:20;3.15;;;2.90;;
12760;SDS011;6444;49.742;6.114;2023-06-24T10:30:56;3.30;;;3.00;;
12760;SDS011;6444;49.742;6.114;2023-06-24T10:33:25;4.90;;;3.10;;
12760;SDS011;6444;49.742;6.114;2023-06-24T10:35:51;3.15;;;2.85;;
12760;SDS011;6444;49.742;6.114;2023-06-24T10:38:18;3.25;;;2.80;;
12760;SDS011;6444;49.742;6.114;2023-06-24T10:40:45;2.70;;;2.50;;
12760;SDS011;6444;49.742;6.114;2023-06-24T10:45:51;2.97;;;2.60;;
12760;SDS011;6444;49.742;6.114;2023-06-24T10:48:17;3.03;;;2.62;;
12760;SDS011;6444;49.742;6.114;2023-06-24T10:50:43;3.17;;;2.87;;
12760;SDS011;6444;49.742;6.114;2023-06-24T10:53:10;3.42;;;3.05;;
12760;SDS011;6444;49.742;6.114;2023-06-24T10:55:37;3.70;;;3.40;;
12760;SDS011;6444;49.742;6.114;2023-06-24T10:58:07;2.85;;;2.65;;
12760;SDS011;6444;49.742;6.114;2023-06-24T11:00:33;3.20;;;2.80;;
12760;SDS011;6444;49.742;6.114;2023-06-24T11:03:09;2.72;;;2.47;;
12760;SDS011;6444;49.742;6.114;2023-06-24T11:05:37;2.60;;;2.40;;
12760;SDS011;6444;49.742;6.114;2023-06-24T11:08:01;2.85;;;2.55;;
12760;SDS011;6444;49.742;6.114;2023-06-24T11:10:28;4.35;;;2.60;;
12760;SDS011;6444;49.742;6.114;2023-06-24T11:12:55;3.10;;;2.80;;
12760;SDS011;6444;49.742;6.114;2023-06-24T11:15:22;2.83;;;2.62;;
12760;SDS011;6444;49.742;6.114;2023-06-24T11:17:50;3.22;;;2.92;;
12760;SDS011;6444;49.742;6.114;2023-06-24T11:20:15;3.37;;;2.50;;
12760;SDS011;6444;49.742;6.114;2023-06-24T11:22:42;2.95;;;2.75;;
12760;SDS011;6444;49.742;6.114;2023-06-24T11:25:19;3.28;;;2.70;;
12760;SDS011;6444;49.742;6.114;2023-06-24T11:27:41;3.17;;;2.53;;
12760;SDS011;6444;49.742;6.114;2023-06-24T11:30:08;2.60;;;2.35;;
12760;SDS011;6444;49.742;6.114;2023-06-24T11:32:37;2.97;;;2.78;;
12760;SDS011;6444;49.742;6.114;2023-06-24T11:35:02;3.10;;;2.80;;
12760;SDS011;6444;49.742;6.114;2023-06-24T11:37:30;2.50;;;2.30;;
12760;SDS011;6444;49.742;6.114;2023-06-24T11:40:02;2.47;;;2.28;;
12760;SDS011;6444;49.742;6.114;2023-06-24T11:42:28;2.53;;;2.33;;
12760;SDS011;6444;49.742;6.114;2023-06-24T11:44:58;3.03;;;2.50;;
12760;SDS011;6444;49.742;6.114;2023-06-24T11:47:22;3.75;;;3.00;;
12760;SDS011;6444;49.742;6.114;2023-06-24T11:49:52;4.40;;;2.70;;
12760;SDS011;6444;49.742;6.114;2023-06-24T11:52:18;2.80;;;2.53;;
12760;SDS011;6444;49.742;6.114;2023-06-24T11:54:45;2.62;;;2.42;;
12760;SDS011;6444;49.742;6.114;2023-06-24T11:57:11;4.43;;;2.95;;
12760;SDS011;6444;49.742;6.114;2023-06-24T11:59:38;3.83;;;2.67;;
12760;SDS011;6444;49.742;6.114;2023-06-24T12:02:04;3.10;;;2.80;;
12760;SDS011;6444;49.742;6.114;2023-06-24T12:04:31;3.12;;;2.55;;
12760;SDS011;6444;49.742;6.114;2023-06-24T12:06:58;3.10;;;2.80;;
12760;SDS011;6444;49.742;6.114;2023-06-24T12:09:24;2.85;;;2.60;;
12760;SDS011;6444;49.742;6.114;2023-06-24T12:11:52;3.47;;;2.80;;
12760;SDS011;6444;49.742;6.114;2023-06-24T12:14:18;2.67;;;2.47;;
12760;SDS011;6444;49.742;6.114;2023-06-24T12:16:45;3.78;;;2.37;;
12760;SDS011;6444;49.742;6.114;2023-06-24T12:19:12;3.00;;;2.70;;
12760;SDS011;6444;49.742;6.114;2023-06-24T12:21:39;3.33;;;2.90;;
12760;SDS011;6444;49.742;6.114;2023-06-24T12:24:06;3.75;;;2.83;;
12760;SDS011;6444;49.742;6.114;2023-06-24T12:26:32;3.10;;;2.80;;
12760;SDS011;6444;49.742;6.114;2023-06-24T12:28:59;3.20;;;2.90;;
12760;SDS011;6444;49.742;6.114;2023-06-24T12:31:26;3.30;;;2.75;;
12760;SDS011;6444;49.742;6.114;2023-06-24T12:33:52;3.05;;;2.80;;
12760;SDS011;6444;49.742;6.114;2023-06-24T12:36:19;3.17;;;2.60;;
12760;SDS011;6444;49.742;6.114;2023-06-24T12:38:45;3.37;;;3.08;;
12760;SDS011;6444;49.742;6.114;2023-06-24T12:41:12;3.00;;;2.35;;
12760;SDS011;6444;49.742;6.114;2023-06-24T12:43:39;4.72;;;2.75;;
12760;SDS011;6444;49.742;6.114;2023-06-24T12:46:05;3.03;;;2.83;;
12760;SDS011;6444;49.742;6.114;2023-06-24T12:48:32;4.43;;;2.97;;
12760;SDS011;6444;49.742;6.114;2023-06-24T12:50:59;3.87;;;2.80;;
12760;SDS011;6444;49.742;6.114;2023-06-24T12:53:25;3.30;;;3.00;;
12760;SDS011;6444;49.742;6.114;2023-06-24T12:55:52;4.53;;;2.70;;
12760;SDS011;6444;49.742;6.114;2023-06-24T12:58:19;3.30;;;3.00;;
12760;SDS011;6444;49.742;6.114;2023-06-24T13:00:45;3.50;;;2.95;;
12760;SDS011;6444;49.742;6.114;2023-06-24T13:03:12;3.62;;;2.97;;
12760;SDS011;6444;49.742;6.114;2023-06-24T13:05:38;3.03;;;2.83;;
12760;SDS011;6444;49.742;6.114;2023-06-24T13:08:05;3.37;;;2.80;;
12760;SDS011;6444;49.742;6.114;2023-06-24T13:10:32;5.90;;;2.97;;
12760;SDS011;6444;49.742;6.114;2023-06-24T13:12:58;3.40;;;3.08;;
12760;SDS011;6444;49.742;6.114;2023-06-24T13:15:25;3.80;;;3.17;;
12760;SDS011;6444;49.742;6.114;2023-06-24T13:17:51;4.22;;;3.37;;
12760;SDS011;6444;49.742;6.114;2023-06-24T13:20:18;3.70;;;3.25;;
12760;SDS011;6444;49.742;6.114;2023-06-24T13:22:45;3.85;;;3.17;;
12760;SDS011;6444;49.742;6.114;2023-06-24T13:25:11;2.92;;;2.62;;
12760;SDS011;6444;49.742;6.114;2023-06-24T13:27:38;3.60;;;2.87;;
12760;SDS011;6444;49.742;6.114;2023-06-24T13:30:05;3.30;;;2.95;;
12760;SDS011;6444;49.742;6.114;2023-06-24T13:32:31;3.62;;;2.92;;
12760;SDS011;6444;49.742;6.114;2023-06-24T13:34:58;3.95;;;3.00;;
12760;SDS011;6444;49.742;6.114;2023-06-24T13:37:25;3.55;;;2.72;;
12760;SDS011;6444;49.742;6.114;2023-06-24T13:39:51;3.40;;;3.00;;
12760;SDS011;6444;49.742;6.114;2023-06-24T13:42:18;3.42;;;3.12;;
12760;SDS011;6444;49.742;6.114;2023-06-24T13:44:44;3.55;;;3.10;;
12760;SDS011;6444;49.742;6.114;2023-06-24T13:47:11;3.92;;;3.37;;
12760;SDS011;6444;49.742;6.114;2023-06-24T13:49:38;3.83;;;3.15;;
12760;SDS011;6444;49.742;6.114;2023-06-24T13:52:04;3.95;;;3.03;;
12760;SDS011;6444;49.742;6.114;2023-06-24T13:54:31;3.50;;;3.20;;
12760;SDS011;6444;49.742;6.114;2023-06-24T13:56:58;4.05;;;3.05;;
12760;SDS011;6444;49.742;6.114;2023-06-24T13:59:24;3.55;;;2.90;;
12760;SDS011;6444;49.742;6.114;2023-06-24T14:01:51;3.33;;;2.90;;
12760;SDS011;6444;49.742;6.114;2023-06-24T14:04:18;4.00;;;2.83;;
12760;SDS011;6444;49.742;6.114;2023-06-24T14:06:44;3.10;;;2.80;;
12760;SDS011;6444;49.742;6.114;2023-06-24T14:09:11;3.28;;;2.97;;
12760;SDS011;6444;49.742;6.114;2023-06-24T14:11:37;3.05;;;2.70;;
12760;SDS011;6444;49.742;6.114;2023-06-24T14:14:04;2.72;;;2.53;;
12760;SDS011;6444;49.742;6.114;2023-06-24T14:16:31;3.30;;;3.00;;
12760;SDS011;6444;49.742;6.114;2023-06-24T14:18:57;3.53;;;3.10;;
12760;SDS011;6444;49.742;6.114;2023-06-24T14:21:24;3.30;;;3.00;;
12760;SDS011;6444;49.742;6.114;2023-06-24T14:23:51;4.65;;;2.80;;
12760;SDS011;6444;49.742;6.114;2023-06-24T14:26:17;3.45;;;2.92;;
12760;SDS011;6444;49.742;6.114;2023-06-24T14:28:45;3.33;;;3.03;;
12760;SDS011;6444;49.742;6.114;2023-06-24T14:31:11;3.40;;;3.10;;
12760;SDS011;6444;49.742;6.114;2023-06-24T14:33:38;3.70;;;3.12;;
12760;SDS011;6444;49.742;6.114;2023-06-24T14:36:04;4.05;;;3.30;;
12760;SDS011;6444;49.742;6.114;2023-06-24T14:38:32;3.55;;;3.12;;
12760;SDS011;6444;49.742;6.114;2023-06-24T14:40:58;4.75;;;2.97;;
12760;SDS011;6444;49.742;6.114;2023-06-24T14:43:25;3.30;;;3.00;;
12760;SDS011;6444;49.742;6.114;2023-06-24T14:45:52;3.47;;;2.90;;
12760;SDS011;6444;49.742;6.114;2023-06-24T14:48:19;3.87;;;3.08;;
12760;SDS011;6444;49.742;6.114;2023-06-24T14:50:46;5.50;;;3.22;;
12760;SDS011;6444;49.742;6.114;2023-06-24T14:53:12;3.72;;;3.42;;
12760;SDS011;6444;49.742;6.114;2023-06-24T14:55:39;3.65;;;3.33;;
12760;SDS011;6444;49.742;6.114;2023-06-24T14:58:06;3.75;;;3.10;;
12760;SDS011;6444;49.742;6.114;2023-06-24T15:00:32;3.50;;;3.20;;
12760;SDS011;6444;49.742;6.114;2023-06-24T15:02:59;4.32;;;3.40;;
12760;SDS011;6444;49.742;6.114;2023-06-24T15:05:25;3.72;;;3.42;;
12760;SDS011;6444;49.742;6.114;2023-06-24T15:07:52;3.78;;;3.40;;